Time;durP1;ratioP1;P1;durP2;ratioP2;P2;SDS_P1;SDS_P2;PMS_P1;PMS_P2;Temp;Humidity;BMP_temperature;BMP_pressure;BME280_temperature;BME280_humidity;BME280_pressure;Samples;Min_cycle;Max_cycle;Signal;HPM_P1;HPM_P2
2021/12/22 00:02:03;;;;;;;50.07;24.60;;;;;;;;;;5077986;28;20405;-64
2021/12/22 00:04:32;;;;;;;42.53;22.83;;;;;;;;;;5082694;28;20808;-64
2021/12/22 00:06:58;;;;;;;46.73;24.97;;;;;;;;;;5067920;28;20302;-64
2021/12/22 00:09:23;;;;;;;42.97;23.67;;;;;;;;;;5084142;28;20279;-64
2021/12/22 00:11:50;;;;;;;45.30;23.63;;;;;;;;;;5062605;28;20067;-65
2021/12/22 00:14:16;;;;;;;42.77;22.73;;;;;;;;;;5062091;28;20371;-64
2021/12/22 00:16:42;;;;;;;46.23;22.77;;;;;;;;;;5061473;28;20679;-65
2021/12/22 00:19:08;;;;;;;42.27;21.83;;;;;;;;;;5078076;28;20286;-64
2021/12/22 00:21:34;;;;;;;50.03;22.03;;;;;;;;;;5059496;28;20299;-64
2021/12/22 00:24:00;;;;;;;43.97;21.93;;;;;;;;;;5083112;28;20282;-64
2021/12/22 00:26:27;;;;;;;45.17;21.27;;;;;;;;;;5068709;28;20308;-64
2021/12/22 00:28:53;;;;;;;47.67;22.17;;;;;;;;;;5081918;28;20290;-64
2021/12/22 00:31:21;;;;;;;47.07;22.43;;;;;;;;;;5083390;28;20816;-64
2021/12/22 00:33:49;;;;;;;40.37;20.77;;;;;;;;;;5081365;28;20032;-64
2021/12/22 00:36:16;;;;;;;45.10;21.97;;;;;;;;;;5065688;28;20278;-64
2021/12/22 00:38:43;;;;;;;42.33;20.43;;;;;;;;;;5060542;28;20293;-64
2021/12/22 00:41:09;;;;;;;43.20;21.17;;;;;;;;;;5067041;28;20283;-64
2021/12/22 00:43:35;;;;;;;41.23;21.83;;;;;;;;;;5078311;28;20283;-64
2021/12/22 00:46:01;;;;;;;44.27;21.70;;;;;;;;;;5077723;28;20959;-65
2021/12/22 00:48:27;;;;;;;43.27;21.23;;;;;;;;;;5083579;28;20640;-64
2021/12/22 00:50:53;;;;;;;42.50;21.50;;;;;;;;;;5081358;28;20725;-64
2021/12/22 00:53:19;;;;;;;44.20;22.03;;;;;;;;;;5081183;28;20386;-64
2021/12/22 00:55:45;;;;;;;34.70;18.83;;;;;;;;;;5079617;28;20435;-64
2021/12/22 00:58:11;;;;;;;37.00;19.57;;;;;;;;;;5065054;28;20289;-65
2021/12/22 01:00:37;;;;;;;39.90;18.13;;;;;;;;;;5080623;28;20697;-64
2021/12/22 01:03:04;;;;;;;39.57;19.33;;;;;;;;;;5077962;28;20419;-64
2021/12/22 01:05:30;;;;;;;46.27;21.67;;;;;;;;;;5062313;28;20345;-64
2021/12/22 01:07:56;;;;;;;40.33;20.73;;;;;;;;;;5079834;28;20290;-64
2021/12/22 01:10:24;;;;;;;41.03;19.73;;;;;;;;;;5072058;28;20321;-64
2021/12/22 01:12:52;;;;;;;40.37;19.13;;;;;;;;;;5079744;28;20401;-64
2021/12/22 01:15:18;;;;;;;44.77;20.20;;;;;;;;;;5090041;28;20395;-64
2021/12/22 01:17:48;;;;;;;38.23;19.57;;;;;;;;;;5051945;28;20295;-64
2021/12/22 01:20:27;;;;;;;38.60;20.40;;;;;;;;;;5070380;28;20290;-64
2021/12/22 01:23:02;;;;;;;40.87;21.30;;;;;;;;;;5052035;28;20970;-64
2021/12/22 01:25:28;;;;;;;41.67;20.57;;;;;;;;;;5068816;28;20303;-64
2021/12/22 01:27:54;;;;;;;42.33;22.33;;;;;;;;;;5069969;28;20290;-64
2021/12/22 01:30:22;;;;;;;43.33;21.00;;;;;;;;;;5054442;28;20652;-64
2021/12/22 01:32:49;;;;;;;41.67;20.67;;;;;;;;;;5050555;28;20288;-64
2021/12/22 01:35:18;;;;;;;40.23;20.23;;;;;;;;;;5049928;28;20314;-64
2021/12/22 01:37:44;;;;;;;39.30;19.80;;;;;;;;;;5050005;28;21185;-64
2021/12/22 01:40:11;;;;;;;39.23;20.40;;;;;;;;;;5049887;28;20406;-64
2021/12/22 01:42:39;;;;;;;40.57;20.97;;;;;;;;;;5057972;28;20340;-64
2021/12/22 01:45:29;;;;;;;39.37;19.63;;;;;;;;;;5069514;28;20291;-64
2021/12/22 01:50:43;;;;;;;39.30;19.40;;;;;;;;;;5069489;28;20362;-64
2021/12/22 01:53:21;;;;;;;45.93;21.20;;;;;;;;;;5065703;28;20387;-64
2021/12/22 01:55:59;;;;;;;35.97;19.77;;;;;;;;;;5049203;28;20306;-63
2021/12/22 01:58:33;;;;;;;43.53;21.80;;;;;;;;;;5056401;28;20283;-64
2021/12/22 02:00:59;;;;;;;;;;;;;;;;;;5069152;28;20396;-64
2021/12/22 02:03:26;;;;;;;44.67;20.13;;;;;;;;;;5069342;28;19958;-64
2021/12/22 02:05:52;;;;;;;35.30;20.60;;;;;;;;;;5068807;28;20049;-64
2021/12/22 02:08:18;;;;;;;39.10;20.07;;;;;;;;;;5067986;28;20330;-63
2021/12/22 02:10:47;;;;;;;38.30;19.67;;;;;;;;;;5069717;28;20298;-64
2021/12/22 02:13:22;;;;;;;44.40;19.63;;;;;;;;;;5053617;28;20291;-63
2021/12/22 02:15:48;;;;;;;40.23;19.67;;;;;;;;;;5049217;28;20306;-64
2021/12/22 02:18:19;;;;;;;39.47;18.40;;;;;;;;;;5064230;28;20394;-64
2021/12/22 02:20:49;;;;;;;34.13;19.30;;;;;;;;;;5068708;28;20831;-64
2021/12/22 02:23:15;;;;;;;44.57;20.57;;;;;;;;;;5069265;28;20690;-64
2021/12/22 02:25:50;;;;;;;46.23;20.73;;;;;;;;;;5083227;28;20397;-64
2021/12/22 02:28:22;;;;;;;43.37;19.83;;;;;;;;;;5088856;28;20343;-64
2021/12/22 02:30:48;;;;;;;35.47;19.23;;;;;;;;;;5089032;28;20278;-64
2021/12/22 02:35:55;;;;;;;38.67;19.50;;;;;;;;;;5087842;28;20302;-64
2021/12/22 02:38:22;;;;;;;35.40;17.67;;;;;;;;;;5070973;28;20604;-64
2021/12/22 02:40:50;;;;;;;35.40;19.00;;;;;;;;;;5078625;28;20330;-64
2021/12/22 02:43:21;;;;;;;36.10;17.07;;;;;;;;;;5068986;28;20374;-64
2021/12/22 02:45:48;;;;;;;36.00;19.33;;;;;;;;;;5068965;28;20291;-64
2021/12/22 02:48:14;;;;;;;37.17;18.33;;;;;;;;;;5050618;28;20337;-64
2021/12/22 02:50:40;;;;;;;36.67;18.57;;;;;;;;;;5050874;28;20644;-64
2021/12/22 02:53:13;;;;;;;34.93;18.37;;;;;;;;;;5068780;28;20328;-64
2021/12/22 02:55:49;;;;;;;29.17;17.37;;;;;;;;;;5050616;28;21012;-64
2021/12/22 02:58:27;;;;;;;30.07;16.17;;;;;;;;;;5061516;28;20294;-64
2021/12/22 03:03:48;;;;;;;31.83;17.53;;;;;;;;;;5068739;28;20287;-64
2021/12/22 03:06:19;;;;;;;34.67;17.10;;;;;;;;;;5070032;28;20298;-64
2021/12/22 03:08:45;;;;;;;29.43;16.47;;;;;;;;;;5070389;28;20290;-63
2021/12/22 03:11:11;;;;;;;33.50;17.70;;;;;;;;;;5088910;28;21009;-64
2021/12/22 03:13:37;;;;;;;32.13;16.60;;;;;;;;;;5092887;28;20044;-64
2021/12/22 03:16:04;;;;;;;31.77;17.43;;;;;;;;;;5074063;28;20310;-64
2021/12/22 03:18:31;;;;;;;38.70;17.80;;;;;;;;;;5070929;28;20303;-64
2021/12/22 03:21:07;;;;;;;36.53;18.50;;;;;;;;;;5066801;28;20390;-64
2021/12/22 03:23:33;;;;;;;27.43;16.70;;;;;;;;;;5052241;28;20291;-64
2021/12/22 03:25:59;;;;;;;35.27;17.57;;;;;;;;;;5051444;28;20931;-64
2021/12/22 03:28:25;;;;;;;31.37;16.97;;;;;;;;;;5061465;28;20037;-64
2021/12/22 03:30:53;;;;;;;33.87;16.80;;;;;;;;;;5072284;28;20048;-64
2021/12/22 03:33:19;;;;;;;34.37;17.83;;;;;;;;;;5070839;28;20299;-64
2021/12/22 03:35:45;;;;;;;36.67;19.47;;;;;;;;;;5072109;28;20308;-64
2021/12/22 03:38:12;;;;;;;34.03;18.23;;;;;;;;;;5072190;28;20127;-64
2021/12/22 03:40:38;;;;;;;35.33;17.07;;;;;;;;;;5071832;28;20283;-64
2021/12/22 03:43:04;;;;;;;40.70;19.07;;;;;;;;;;5072238;28;20618;-63
2021/12/22 03:45:30;;;;;;;37.70;18.30;;;;;;;;;;5070782;28;20498;-64
2021/12/22 03:47:56;;;;;;;34.23;17.93;;;;;;;;;;5062118;28;20300;-65
2021/12/22 03:50:22;;;;;;;38.50;18.53;;;;;;;;;;5051465;28;20781;-64
2021/12/22 03:52:49;;;;;;;34.43;17.70;;;;;;;;;;5060083;28;20290;-64
2021/12/22 03:55:15;;;;;;;33.43;17.97;;;;;;;;;;5070370;28;20059;-64
2021/12/22 03:57:41;;;;;;;34.03;17.63;;;;;;;;;;5069549;28;20299;-64
2021/12/22 04:00:10;;;;;;;35.83;19.53;;;;;;;;;;5070475;28;20387;-64
2021/12/22 04:02:36;;;;;;;34.47;18.33;;;;;;;;;;5070225;28;20380;-64
2021/12/22 04:05:03;;;;;;;34.60;17.07;;;;;;;;;;5071444;28;20287;-63
2021/12/22 04:07:29;;;;;;;33.70;19.30;;;;;;;;;;5071630;28;20707;-64
2021/12/22 04:09:55;;;;;;;37.23;17.93;;;;;;;;;;5071299;28;20295;-64
2021/12/22 04:12:21;;;;;;;34.40;17.97;;;;;;;;;;5071583;28;20279;-64
2021/12/22 04:14:47;;;;;;;34.03;18.03;;;;;;;;;;5071383;28;20881;-64
2021/12/22 04:17:13;;;;;;;36.57;19.13;;;;;;;;;;5070272;28;20344;-63
2021/12/22 04:19:39;;;;;;;40.27;19.30;;;;;;;;;;5071118;28;20289;-64
2021/12/22 04:22:06;;;;;;;32.63;17.13;;;;;;;;;;5069906;28;20283;-63
2021/12/22 04:24:32;;;;;;;38.63;18.63;;;;;;;;;;5070160;28;20524;-64
2021/12/22 04:26:58;;;;;;;35.27;16.87;;;;;;;;;;5070398;28;20295;-63
2021/12/22 04:29:24;;;;;;;33.67;17.10;;;;;;;;;;5060573;28;20291;-63
2021/12/22 04:31:50;;;;;;;33.63;17.20;;;;;;;;;;5070835;28;20568;-64
2021/12/22 04:34:16;;;;;;;33.67;18.00;;;;;;;;;;5070218;28;20787;-65
2021/12/22 04:36:42;;;;;;;34.03;16.90;;;;;;;;;;5071153;28;20289;-64
2021/12/22 04:39:09;;;;;;;29.80;16.50;;;;;;;;;;5070452;28;20048;-64
2021/12/22 04:41:35;;;;;;;30.53;15.80;;;;;;;;;;5070410;28;20743;-64
2021/12/22 04:44:01;;;;;;;30.70;17.60;;;;;;;;;;5070565;28;20283;-64
2021/12/22 04:46:27;;;;;;;44.63;19.77;;;;;;;;;;5064795;28;20295;-64
2021/12/22 04:48:53;;;;;;;33.90;17.13;;;;;;;;;;5050593;28;20284;-64
2021/12/22 04:51:26;;;;;;;35.13;17.50;;;;;;;;;;5050717;28;20294;-64
2021/12/22 04:53:58;;;;;;;33.37;17.67;;;;;;;;;;5067010;28;20370;-64
2021/12/22 04:56:24;;;;;;;37.13;18.00;;;;;;;;;;5057270;28;20292;-64
2021/12/22 04:58:50;;;;;;;34.03;17.13;;;;;;;;;;5070584;28;20282;-63
2021/12/22 05:01:16;;;;;;;35.87;17.50;;;;;;;;;;5063122;28;20298;-64
2021/12/22 05:03:42;;;;;;;39.27;17.73;;;;;;;;;;5050621;28;20288;-64
2021/12/22 05:06:08;;;;;;;37.37;17.00;;;;;;;;;;5049414;28;20327;-64
2021/12/22 05:08:34;;;;;;;32.23;17.40;;;;;;;;;;5050268;28;20298;-64
2021/12/22 05:11:00;;;;;;;34.50;17.53;;;;;;;;;;5048984;28;20288;-64
2021/12/22 05:13:26;;;;;;;37.57;17.37;;;;;;;;;;5063804;28;20299;-64
2021/12/22 05:15:53;;;;;;;34.97;17.07;;;;;;;;;;5060455;28;20386;-63
2021/12/22 05:18:46;;;;;;;38.07;17.07;;;;;;;;;;5085577;28;20294;-64
2021/12/22 05:21:10;;;;;;;32.80;17.07;;;;;;;;;;5071666;28;20852;-63
2021/12/22 05:23:36;;;;;;;33.73;17.33;;;;;;;;;;5055684;28;20283;-64
2021/12/22 05:26:02;;;;;;;36.47;17.47;;;;;;;;;;5090199;28;20048;-64
2021/12/22 05:28:28;;;;;;;33.47;17.23;;;;;;;;;;5071599;28;20044;-64
2021/12/22 05:30:54;;;;;;;32.00;16.97;;;;;;;;;;5071877;28;20297;-64
2021/12/22 05:33:20;;;;;;;32.30;16.87;;;;;;;;;;5090030;28;20278;-64
2021/12/22 05:35:46;;;;;;;33.13;16.13;;;;;;;;;;5088716;28;21018;-63
2021/12/22 05:38:13;;;;;;;34.87;18.13;;;;;;;;;;5089934;28;20115;-64
2021/12/22 05:40:39;;;;;;;34.27;15.97;;;;;;;;;;5089030;28;20927;-64
2021/12/22 05:43:05;;;;;;;33.00;16.93;;;;;;;;;;5072167;28;20613;-64
2021/12/22 05:45:31;;;;;;;27.60;15.03;;;;;;;;;;5089723;28;20282;-64
2021/12/22 05:47:57;;;;;;;39.43;16.73;;;;;;;;;;5071470;28;20745;-64
2021/12/22 05:50:24;;;;;;;35.97;16.63;;;;;;;;;;5089800;28;20290;-64
2021/12/22 05:52:50;;;;;;;35.27;16.63;;;;;;;;;;5071266;28;20294;-64
2021/12/22 05:55:16;;;;;;;34.63;16.03;;;;;;;;;;5089584;28;20317;-64
2021/12/22 05:57:42;;;;;;;41.23;17.07;;;;;;;;;;5089060;28;20290;-64
2021/12/22 06:00:08;;;;;;;33.70;17.60;;;;;;;;;;5080113;28;20305;-64
2021/12/22 06:02:34;;;;;;;34.30;15.80;;;;;;;;;;5050802;28;20318;-64
2021/12/22 06:05:00;;;;;;;34.03;17.50;;;;;;;;;;5034792;28;20344;-64
2021/12/22 06:07:26;;;;;;;34.47;17.27;;;;;;;;;;5080836;28;20324;-63
2021/12/22 06:09:52;;;;;;;36.73;17.17;;;;;;;;;;5070826;28;20293;-63
2021/12/22 06:12:18;;;;;;;36.60;18.03;;;;;;;;;;5088818;28;20040;-63
2021/12/22 06:14:44;;;;;;;32.60;16.70;;;;;;;;;;5088234;28;20040;-64
2021/12/22 06:17:10;;;;;;;34.33;16.20;;;;;;;;;;5065709;28;20290;-63
2021/12/22 06:19:36;;;;;;;37.30;18.23;;;;;;;;;;5089215;28;20131;-64
2021/12/22 06:22:03;;;;;;;32.03;17.33;;;;;;;;;;5070973;28;20351;-63
2021/12/22 06:24:29;;;;;;;36.73;17.27;;;;;;;;;;5089025;28;20284;-64
2021/12/22 06:26:56;;;;;;;33.40;17.10;;;;;;;;;;5053533;28;20317;-63
2021/12/22 06:29:22;;;;;;;39.30;17.60;;;;;;;;;;5069933;28;20343;-63
2021/12/22 06:31:48;;;;;;;36.47;17.60;;;;;;;;;;5055090;28;20282;-64
2021/12/22 06:34:14;;;;;;;38.03;18.93;;;;;;;;;;5053371;28;20290;-64
2021/12/22 06:36:40;;;;;;;39.13;18.87;;;;;;;;;;5089266;28;20281;-63
2021/12/22 06:39:07;;;;;;;32.43;16.70;;;;;;;;;;5071161;28;20294;-63
2021/12/22 06:41:34;;;;;;;38.20;18.03;;;;;;;;;;5088592;28;20270;-63
2021/12/22 06:44:00;;;;;;;33.20;17.60;;;;;;;;;;5088932;28;20381;-63
2021/12/22 06:46:26;;;;;;;35.20;18.23;;;;;;;;;;5087506;28;20298;-63
2021/12/22 06:48:52;;;;;;;39.37;17.70;;;;;;;;;;5088744;28;20375;-63
2021/12/22 06:51:18;;;;;;;38.83;17.13;;;;;;;;;;5069499;28;20286;-63
2021/12/22 06:53:44;;;;;;;32.03;15.80;;;;;;;;;;5088811;28;20309;-63
2021/12/22 06:56:10;;;;;;;36.67;15.83;;;;;;;;;;5087590;28;20359;-64
2021/12/22 06:58:36;;;;;;;35.00;16.27;;;;;;;;;;5088230;28;20286;-64
2021/12/22 07:01:02;;;;;;;37.30;16.90;;;;;;;;;;5087933;28;20285;-63
2021/12/22 07:03:28;;;;;;;32.73;15.07;;;;;;;;;;5082535;28;20337;-64
2021/12/22 07:05:54;;;;;;;36.40;16.57;;;;;;;;;;5068608;28;20287;-64
2021/12/22 07:08:20;;;;;;;28.60;16.20;;;;;;;;;;5083492;28;20335;-63
2021/12/22 07:10:47;;;;;;;33.23;14.70;;;;;;;;;;5070371;28;20282;-63
2021/12/22 07:13:14;;;;;;;32.97;16.43;;;;;;;;;;5088802;28;20771;-64
2021/12/22 07:15:40;;;;;;;30.63;15.03;;;;;;;;;;5088215;28;20321;-65
2021/12/22 07:18:10;;;;;;;30.27;14.37;;;;;;;;;;5081241;28;20294;-63
2021/12/22 07:20:36;;;;;;;30.10;14.80;;;;;;;;;;5053039;28;20294;-64
2021/12/22 07:23:02;;;;;;;31.67;15.90;;;;;;;;;;5088474;28;20347;-64
2021/12/22 07:25:28;;;;;;;33.43;16.00;;;;;;;;;;5065068;28;20337;-63
2021/12/22 07:27:54;;;;;;;34.57;16.30;;;;;;;;;;5068520;28;20859;-64
2021/12/22 07:30:21;;;;;;;31.27;15.70;;;;;;;;;;5069882;28;20289;-64
2021/12/22 07:32:47;;;;;;;31.27;16.07;;;;;;;;;;5069816;28;20314;-63
2021/12/22 07:35:25;;;;;;;32.83;16.23;;;;;;;;;;5088501;28;20352;-64
2021/12/22 07:38:17;;;;;;;32.23;15.70;;;;;;;;;;5070328;28;20351;-64
2021/12/22 07:40:43;;;;;;;29.17;14.83;;;;;;;;;;5049827;28;20305;-63
2021/12/22 07:43:09;;;;;;;36.10;14.90;;;;;;;;;;5070098;28;20361;-63
2021/12/22 07:45:35;;;;;;;29.47;14.33;;;;;;;;;;5070501;28;20295;-64
2021/12/22 07:48:01;;;;;;;34.40;16.33;;;;;;;;;;5088053;28;20278;-63
2021/12/22 07:50:27;;;;;;;31.20;15.93;;;;;;;;;;5087826;28;20271;-63
2021/12/22 07:52:53;;;;;;;31.20;15.67;;;;;;;;;;5088067;28;20286;-64
2021/12/22 07:55:19;;;;;;;34.20;16.53;;;;;;;;;;5069786;28;20363;-64
2021/12/22 07:57:45;;;;;;;28.43;14.40;;;;;;;;;;5070649;28;20290;-64
2021/12/22 08:00:11;;;;;;;33.23;16.77;;;;;;;;;;5091430;28;20089;-64
2021/12/22 08:02:37;;;;;;;35.20;15.63;;;;;;;;;;5090288;28;20365;-64
2021/12/22 08:05:04;;;;;;;31.47;15.67;;;;;;;;;;5073138;28;20322;-63
2021/12/22 08:07:30;;;;;;;35.60;16.83;;;;;;;;;;5090592;28;20387;-64
2021/12/22 08:09:56;;;;;;;29.87;15.57;;;;;;;;;;5089903;28;20278;-64
2021/12/22 08:12:22;;;;;;;31.33;15.60;;;;;;;;;;5089633;28;20293;-64
2021/12/22 08:14:48;;;;;;;31.10;15.80;;;;;;;;;;5089203;28;20047;-64
2021/12/22 08:17:14;;;;;;;32.83;16.33;;;;;;;;;;5090157;28;20109;-64
2021/12/22 08:19:40;;;;;;;34.87;16.73;;;;;;;;;;5090506;28;20052;-64
2021/12/22 08:22:07;;;;;;;38.47;17.10;;;;;;;;;;5090871;28;20319;-64
2021/12/22 08:24:33;;;;;;;36.10;16.83;;;;;;;;;;5091287;28;20706;-64
2021/12/22 08:26:59;;;;;;;31.03;15.07;;;;;;;;;;5072762;28;20852;-64
2021/12/22 08:29:25;;;;;;;33.67;16.90;;;;;;;;;;5090762;28;20308;-64
2021/12/22 08:31:52;;;;;;;32.80;16.63;;;;;;;;;;5090631;28;20278;-64
2021/12/22 08:34:24;;;;;;;36.83;18.40;;;;;;;;;;5072831;28;20662;-63
2021/12/22 08:39:35;;;;;;;32.57;16.13;;;;;;;;;;5071952;28;20733;-64
2021/12/22 08:42:01;;;;;;;39.73;18.23;;;;;;;;;;5090584;28;20286;-64
2021/12/22 08:44:27;;;;;;;32.93;17.37;;;;;;;;;;5090947;28;20286;-63
2021/12/22 08:46:55;;;;;;;37.37;17.90;;;;;;;;;;5090718;28;20274;-64
2021/12/22 08:49:21;;;;;;;33.70;17.73;;;;;;;;;;5090217;28;20335;-64
2021/12/22 08:51:48;;;;;;;34.23;16.83;;;;;;;;;;5090524;28;20283;-64
2021/12/22 08:54:14;;;;;;;32.67;16.90;;;;;;;;;;5090790;28;20305;-64
2021/12/22 08:56:40;;;;;;;35.93;18.47;;;;;;;;;;5090235;28;20304;-64
2021/12/22 08:59:07;;;;;;;33.80;17.97;;;;;;;;;;5090391;28;20282;-64
2021/12/22 09:01:33;;;;;;;39.83;18.83;;;;;;;;;;5090339;28;20282;-64
2021/12/22 09:03:59;;;;;;;32.07;17.37;;;;;;;;;;5089882;28;20308;-64
2021/12/22 09:06:26;;;;;;;41.50;19.37;;;;;;;;;;5090441;28;20278;-63
2021/12/22 09:08:52;;;;;;;30.77;16.97;;;;;;;;;;5089670;28;20297;-64
2021/12/22 09:11:19;;;;;;;36.73;18.37;;;;;;;;;;5090098;28;20282;-64
2021/12/22 09:13:45;;;;;;;35.97;17.23;;;;;;;;;;5090234;28;20621;-64
2021/12/22 09:16:12;;;;;;;33.20;16.53;;;;;;;;;;5089419;28;20306;-64
2021/12/22 09:18:38;;;;;;;35.13;17.43;;;;;;;;;;5089971;28;20857;-64
2021/12/22 09:21:04;;;;;;;36.37;18.90;;;;;;;;;;5089888;28;20290;-64
2021/12/22 09:23:30;;;;;;;36.63;17.03;;;;;;;;;;5089653;28;20278;-64
2021/12/22 09:25:56;;;;;;;35.97;18.53;;;;;;;;;;5071678;28;20282;-64
2021/12/22 09:28:22;;;;;;;33.77;18.10;;;;;;;;;;5089837;28;20281;-64
2021/12/22 09:30:49;;;;;;;33.90;17.47;;;;;;;;;;5089626;28;20096;-64
2021/12/22 09:33:16;;;;;;;30.90;17.53;;;;;;;;;;5089798;28;20286;-64
2021/12/22 09:35:43;;;;;;;30.83;17.60;;;;;;;;;;5071478;28;20342;-64
2021/12/22 09:38:09;;;;;;;36.73;19.53;;;;;;;;;;5089629;28;20693;-64
2021/12/22 09:40:36;;;;;;;42.23;19.67;;;;;;;;;;5071317;28;20362;-64
2021/12/22 09:43:02;;;;;;;33.43;18.27;;;;;;;;;;5089414;28;20771;-64
2021/12/22 09:45:28;;;;;;;38.90;20.53;;;;;;;;;;5071257;28;20295;-64
2021/12/22 09:53:23;;;;;;;37.20;18.43;;;;;;;;;;5089635;28;20126;-64
2021/12/22 09:55:49;;;;;;;36.70;19.40;;;;;;;;;;5070970;28;20376;-64
2021/12/22 09:58:15;;;;;;;43.37;21.90;;;;;;;;;;5089232;28;20354;-65
2021/12/22 10:00:42;;;;;;;42.17;21.17;;;;;;;;;;5088956;28;20776;-64
2021/12/22 10:03:09;;;;;;;41.43;21.13;;;;;;;;;;5070599;28;20286;-64
2021/12/22 10:05:36;;;;;;;51.70;24.73;;;;;;;;;;5089535;28;20297;-64
2021/12/22 10:08:10;;;;;;;51.27;24.60;;;;;;;;;;5070857;28;20286;-64
2021/12/22 10:10:38;;;;;;;43.03;25.03;;;;;;;;;;5089050;28;20286;-65
2021/12/22 10:13:08;;;;;;;47.23;24.57;;;;;;;;;;5088785;28;20339;-64
2021/12/22 10:15:35;;;;;;;53.93;27.40;;;;;;;;;;5070730;28;20313;-65
2021/12/22 10:18:09;;;;;;;43.00;23.03;;;;;;;;;;5088760;28;20290;-64
2021/12/22 10:20:36;;;;;;;41.08;21.70;;;;;;;;;;5088959;28;20371;-65
2021/12/22 10:23:02;;;;;;;37.80;19.53;;;;;;;;;;5088835;28;20047;-65
2021/12/22 10:25:31;;;;;;;37.87;20.53;;;;;;;;;;5088852;28;20732;-65
2021/12/22 10:28:07;;;;;;;33.53;19.13;;;;;;;;;;5088787;28;20328;-65
2021/12/22 10:30:37;;;;;;;32.10;17.73;;;;;;;;;;5088777;28;20290;-65
2021/12/22 10:33:23;;;;;;;26.90;16.30;;;;;;;;;;5088787;28;20285;-65
2021/12/22 10:35:51;;;;;;;32.03;17.83;;;;;;;;;;5088532;28;20885;-65
2021/12/22 10:38:18;;;;;;;31.63;16.20;;;;;;;;;;5088801;28;20657;-65
2021/12/22 10:40:49;;;;;;;25.37;16.43;;;;;;;;;;5088772;28;20377;-65
2021/12/22 10:43:21;;;;;;;25.43;14.80;;;;;;;;;;5088505;28;20335;-65
2021/12/22 10:45:51;;;;;;;28.30;15.17;;;;;;;;;;5088655;28;20274;-65
2021/12/22 10:51:05;;;;;;;26.83;15.80;;;;;;;;;;5088403;28;20274;-65
2021/12/22 10:53:31;;;;;;;27.17;17.17;;;;;;;;;;5088628;28;20357;-65
2021/12/22 10:55:58;;;;;;;29.87;15.10;;;;;;;;;;5070413;28;20313;-65
2021/12/22 10:58:24;;;;;;;28.20;15.50;;;;;;;;;;5069914;28;20286;-65
2021/12/22 11:01:05;;;;;;;24.20;15.20;;;;;;;;;;5088315;28;20809;-65
2021/12/22 11:03:47;;;;;;;27.90;14.80;;;;;;;;;;5070688;28;20409;-65
2021/12/22 11:06:15;;;;;;;24.80;14.60;;;;;;;;;;5088253;28;20296;-66
2021/12/22 11:08:41;;;;;;;22.97;14.07;;;;;;;;;;5053401;28;20779;-65
2021/12/22 11:11:14;;;;;;;25.23;14.97;;;;;;;;;;5087696;28;20284;-65
2021/12/22 11:13:41;;;;;;;24.70;13.70;;;;;;;;;;5088155;28;20290;-65
2021/12/22 11:16:14;;;;;;;25.63;14.97;;;;;;;;;;5088302;28;20040;-65
2021/12/22 11:18:41;;;;;;;28.60;15.52;;;;;;;;;;5088062;28;20799;-66
2021/12/22 11:21:08;;;;;;;26.17;13.80;;;;;;;;;;5087829;28;20164;-66
2021/12/22 11:23:34;;;;;;;25.57;13.50;;;;;;;;;;5087944;28;20331;-66
2021/12/22 11:26:00;;;;;;;25.17;14.03;;;;;;;;;;5088133;28;20309;-66
2021/12/22 11:28:28;;;;;;;26.40;14.70;;;;;;;;;;5070126;28;20381;-66
2021/12/22 11:30:54;;;;;;;27.80;15.77;;;;;;;;;;5087894;28;20286;-66
2021/12/22 11:33:20;;;;;;;23.90;13.63;;;;;;;;;;5089827;28;20292;-66
2021/12/22 11:35:46;;;;;;;27.10;15.33;;;;;;;;;;5091821;28;20309;-65
2021/12/22 11:38:13;;;;;;;26.53;16.17;;;;;;;;;;5073978;28;20666;-66
2021/12/22 11:40:42;;;;;;;30.93;16.83;;;;;;;;;;5074005;28;20286;-65
2021/12/22 11:43:09;;;;;;;27.90;15.57;;;;;;;;;;5091989;28;20286;-66
2021/12/22 11:45:36;;;;;;;26.13;14.23;;;;;;;;;;5091481;28;20282;-65
2021/12/22 11:48:02;;;;;;;26.53;14.17;;;;;;;;;;5073897;28;20980;-66
2021/12/22 11:50:29;;;;;;;29.37;16.10;;;;;;;;;;5091948;28;20285;-66
2021/12/22 11:53:00;;;;;;;21.70;13.53;;;;;;;;;;5072991;28;20282;-66
2021/12/22 11:55:28;;;;;;;24.37;14.67;;;;;;;;;;5091464;28;20314;-66
2021/12/22 11:58:12;;;;;;;24.97;14.43;;;;;;;;;;5073497;28;20294;-66
2021/12/22 12:00:39;;;;;;;25.98;15.48;;;;;;;;;;5091492;28;20373;-66
2021/12/22 12:03:23;;;;;;;27.23;15.00;;;;;;;;;;5091394;28;20036;-66
2021/12/22 12:06:08;;;;;;;21.10;14.17;;;;;;;;;;5091602;28;20347;-66
2021/12/22 12:08:58;;;;;;;23.83;13.90;;;;;;;;;;5091384;28;20455;-66
2021/12/22 12:11:36;;;;;;;24.33;14.87;;;;;;;;;;5091573;28;20318;-66
2021/12/22 12:14:08;;;;;;;28.23;16.70;;;;;;;;;;5091374;28;20290;-66
2021/12/22 12:22:27;;;;;;;25.87;15.00;;;;;;;;;;5089616;28;20298;-67
2021/12/22 12:25:13;;;;;;;24.87;14.07;;;;;;;;;;5065044;28;20850;-67
2021/12/22 12:27:43;;;;;;;25.87;14.50;;;;;;;;;;5087065;28;20803;-67
2021/12/22 12:30:10;;;;;;;20.33;13.07;;;;;;;;;;5069313;28;20287;-67
2021/12/22 12:32:39;;;;;;;23.77;13.33;;;;;;;;;;5070365;28;20311;-67
2021/12/22 12:35:23;;;;;;;23.63;14.03;;;;;;;;;;5045462;28;20317;-67
2021/12/22 12:38:02;;;;;;;21.30;13.77;;;;;;;;;;5054688;28;20878;-67
2021/12/22 12:40:46;;;;;;;27.57;15.40;;;;;;;;;;5086473;28;20345;-67
2021/12/22 12:43:12;;;;;;;22.83;11.83;;;;;;;;;;5071289;28;20323;-67
2021/12/22 12:45:46;;;;;;;22.90;13.17;;;;;;;;;;5083391;28;20290;-67
2021/12/22 12:48:24;;;;;;;19.38;11.68;;;;;;;;;;5078199;28;20290;-68
2021/12/22 12:51:09;;;;;;;19.97;12.03;;;;;;;;;;5068648;28;20052;-68
2021/12/22 12:53:42;;;;;;;20.70;12.17;;;;;;;;;;5084739;28;20347;-67
2021/12/22 12:56:09;;;;;;;20.88;12.95;;;;;;;;;;5058606;28;20298;-67
2021/12/22 12:58:35;;;;;;;19.67;11.67;;;;;;;;;;5064856;28;20161;-67
2021/12/22 13:01:01;;;;;;;24.03;12.97;;;;;;;;;;5070501;28;20282;-68
2021/12/22 13:03:27;;;;;;;21.80;13.17;;;;;;;;;;5087283;28;20282;-67
2021/12/22 13:05:53;;;;;;;21.73;12.40;;;;;;;;;;5060892;28;20283;-68
2021/12/22 13:08:19;;;;;;;21.20;12.70;;;;;;;;;;5051357;28;20097;-68
2021/12/22 13:10:51;;;;;;;20.70;11.90;;;;;;;;;;5071346;28;20289;-68
2021/12/22 13:13:20;;;;;;;21.47;12.47;;;;;;;;;;5072526;28;20040;-68
2021/12/22 13:15:46;;;;;;;21.30;13.70;;;;;;;;;;5089492;28;20339;-68
2021/12/22 13:18:14;;;;;;;23.10;14.47;;;;;;;;;;5086817;28;20347;-68
2021/12/22 13:20:41;;;;;;;21.97;13.17;;;;;;;;;;5075869;28;20295;-68
2021/12/22 13:23:10;;;;;;;19.50;12.13;;;;;;;;;;5077229;28;20054;-68
2021/12/22 13:25:40;;;;;;;21.70;11.77;;;;;;;;;;5088099;28;20335;-68
2021/12/22 13:28:14;;;;;;;20.13;12.80;;;;;;;;;;5090133;28;20294;-68
2021/12/22 13:30:40;;;;;;;22.80;12.03;;;;;;;;;;5068971;28;20390;-68
2021/12/22 13:33:14;;;;;;;19.30;12.40;;;;;;;;;;5071806;28;20291;-67
2021/12/22 13:35:46;;;;;;;20.77;12.87;;;;;;;;;;5069148;28;20573;-69
2021/12/22 13:38:29;;;;;;;20.27;12.63;;;;;;;;;;5070871;28;20362;-67
2021/12/22 13:41:01;;;;;;;21.53;12.60;;;;;;;;;;5085631;28;20302;-68
2021/12/22 13:43:27;;;;;;;20.40;12.57;;;;;;;;;;5072296;28;20295;-67
2021/12/22 13:45:56;;;;;;;23.07;14.37;;;;;;;;;;5069283;28;20688;-67
2021/12/22 13:48:24;;;;;;;25.50;13.77;;;;;;;;;;5070580;28;20049;-67
2021/12/22 13:50:50;;;;;;;23.67;13.50;;;;;;;;;;5052294;28;20298;-67
2021/12/22 13:53:17;;;;;;;23.80;12.93;;;;;;;;;;5067456;28;20283;-67
2021/12/22 13:55:44;;;;;;;25.53;13.43;;;;;;;;;;5082107;28;20316;-67
2021/12/22 13:58:36;;;;;;;23.40;13.03;;;;;;;;;;5089105;28;20314;-67
2021/12/22 14:01:13;;;;;;;21.90;14.57;;;;;;;;;;5048038;28;20287;-68
2021/12/22 14:03:39;;;;;;;25.10;13.80;;;;;;;;;;5050933;28;20452;-68
2021/12/22 14:06:06;;;;;;;21.70;13.27;;;;;;;;;;5078211;28;20044;-68
2021/12/22 14:08:32;;;;;;;23.43;14.10;;;;;;;;;;5084649;28;20645;-68
2021/12/22 14:10:58;;;;;;;20.63;12.67;;;;;;;;;;5061416;28;20597;-67
2021/12/22 14:13:28;;;;;;;23.23;14.33;;;;;;;;;;5087764;28;20335;-67
2021/12/22 14:15:54;;;;;;;22.57;13.67;;;;;;;;;;5073500;28;20044;-67
2021/12/22 14:18:41;;;;;;;21.43;12.07;;;;;;;;;;5052677;28;20823;-67
2021/12/22 14:21:19;;;;;;;22.33;13.70;;;;;;;;;;5040774;28;20320;-67
2021/12/22 14:23:45;;;;;;;27.57;15.30;;;;;;;;;;5052339;28;20807;-69
2021/12/22 14:26:11;;;;;;;24.50;14.20;;;;;;;;;;5034476;28;20287;-67
2021/12/22 14:28:37;;;;;;;23.53;14.07;;;;;;;;;;5050816;28;20291;-67
2021/12/22 14:31:07;;;;;;;27.83;14.93;;;;;;;;;;5032247;28;20049;-68
2021/12/22 14:33:33;;;;;;;24.70;14.30;;;;;;;;;;5066303;28;20804;-68
2021/12/22 14:36:02;;;;;;;25.97;15.60;;;;;;;;;;5061058;28;20664;-67
2021/12/22 14:38:32;;;;;;;31.83;15.77;;;;;;;;;;5063793;28;20638;-67
2021/12/22 14:41:00;;;;;;;31.77;16.27;;;;;;;;;;5063783;28;20282;-67
2021/12/22 14:43:52;;;;;;;27.87;16.23;;;;;;;;;;5047969;28;20648;-67
2021/12/22 14:46:30;;;;;;;24.67;14.73;;;;;;;;;;5053668;28;20302;-67
2021/12/22 14:48:58;;;;;;;30.83;15.77;;;;;;;;;;5048872;28;20299;-67
2021/12/22 14:51:25;;;;;;;28.17;16.07;;;;;;;;;;5032071;28;20427;-66